• Join FlightAware (Why Join?)
  • Login
  • US Flag 
12:49AM EDT


 

Airport Tracker/Info


-or-


 

Live Flight TrackerFlight Track Log ✈ FSR411 ✈ 25-Feb-2014 ✈ KMDW - KMMU

Flight Track Log - Related Links

Times and Time Zones

All times are in EST time to prevent confusion due to time zone crossing. See the FSR411 flight status page for this flight to view local times or setup timezone preferences in your user account.

Time Position Orientation Groundspeed Altitude Reporting Facility
EST Latitude Longitude Course Direction KTS MPH feet Rate Location/Type
04:04PM 41.8333 -87.7333 90° East 251 289 2,900  Level Chicago TRACON
04:05PM 41.8186 -87.6458 103° East 263 303 4,700 2,520 Climbing Chicago Center
04:06PM 41.8094 -87.5400 97° East 281 323 8,000 3,300 Climbing Chicago Center
04:07PM 41.7981 -87.4122 97° East 319 367 11,600 3,540 Climbing Chicago Center
04:08PM 41.7850 -87.2789 97° East 356 410 15,400 3,360 Climbing Chicago Center
04:09PM 41.7675 -87.1222 98° East 421 484 18,700 3,000 Climbing Chicago Center
04:10PM 41.7500 -86.8219 90° East  Level FlightAware Approximate
04:10PM 41.7625 -86.9511 92° East 460 529 21,700  Level Chicago Center
04:12PM 41.8106 -86.7806 69° East 485 558 24,200 2,400 Climbing Chicago Center
04:13PM 41.8594 -86.5997 70° East 511 588 26,700 2,460 Climbing Chicago Center
04:14PM 41.9117 -86.4142 69° East 527 606 29,300 2,700 Climbing Chicago Center
04:15PM 41.9700 -86.1869 71° East 537 618 32,300 2,160 Climbing Chicago Center
04:16PM 41.9842 -85.9772 85° East 562 647 33,800 1,620 Climbing Chicago Center
04:17PM 41.9958 -85.7681 86° East 560 644 35,700 1,860 Climbing Chicago Center
04:18PM 42.0067 -85.5653 86° East 547 629 37,700 1,800 Climbing Chicago Center
04:19PM 42.0189 -85.3536 85° East 526 605 39,500 1,320 Climbing Chicago Center
04:20PM 42.0292 -85.1669 86° East 510 587 40,500 720 Climbing Chicago Center
04:21PM 42.0383 -84.9797 86° East 506 582 41,000 240 Climbing Chicago Center
04:22PM 42.0481 -84.7886 86° East 514 592 41,000  Level Chicago Center
04:23PM 42.0575 -84.5908 86° East 527 606 41,000  Level Chicago Center
04:24PM 42.0694 -84.3503 86° East 538 619 41,000  Level Chicago Center
04:25PM 42.0758 -84.2111 86° East 539 620 41,000  Level Cleveland Center
04:26PM 42.0864 -83.9706 87° East 541 623 41,000  Level Cleveland Center
04:27PM 42.0947 -83.7689 87° East 541 623 41,000  Level Cleveland Center
04:28PM 42.1025 -83.5703 87° East 542 624 41,000  Level Cleveland Center
04:29PM 42.1103 -83.3381 87° East 542 624 41,000  Level Cleveland Center
04:30PM 42.1181 -83.1350 87° East 542 624 41,000  Level Cleveland Center
04:31PM 42.1247 -82.9347 87° East 542 624 41,000  Level Cleveland Center
04:32PM 42.1308 -82.7333 88° East 542 624 41,000  Level Cleveland Center
04:33PM 42.1381 -82.5311 87° East 542 624 41,000  Level Cleveland Center
04:34PM 42.1425 -82.3308 88° East 541 623 41,000  Level Cleveland Center
04:35PM 42.1486 -82.1094 88° East 539 620 41,000  Level Cleveland Center
04:36PM 42.1547 -81.9064 88° East 539 620 41,000  Level Cleveland Center
04:37PM 42.1597 -81.6672 88° East 536 617 41,000  Level Cleveland Center
04:38PM 42.1644 -81.4639 88° East 537 618 41,000  Level Cleveland Center
04:39PM 42.1681 -81.2578 89° East 538 619 41,000  Level Cleveland Center
04:40PM 42.1714 -81.0547 89° East 539 620 41,000  Level Cleveland Center
04:41PM 42.1744 -80.8508 89° East 539 620 41,000  Level Cleveland Center
04:42PM 42.1778 -80.6464 89° East 538 619 41,000  Level Cleveland Center
04:43PM 42.1811 -80.4453 89° East 537 618 41,000  Level Cleveland Center
04:44PM 42.1842 -80.2425 89° East 536 617 41,000  Level Cleveland Center
04:45PM 42.1861 -80.0067 89° East 535 616 41,000  Level Cleveland Center
04:47PM 42.1867 -79.8228 90° East 536 617 41,000  Level Cleveland Center
04:48PM 42.1878 -79.6222 90° East 537 618 41,000  Level Cleveland Center
04:49PM 42.1875 -79.3803 90° East 539 620 41,000  Level Cleveland Center
04:50PM 42.1886 -79.1800 90° East 538 619 41,000  Level Cleveland Center
04:51PM 42.1550 -78.9825 103° East 540 621 41,000  Level Cleveland Center
04:52PM 42.1069 -78.7967 109° East 532 612 41,000  Level Cleveland Center
04:53PM 42.0594 -78.6064 109° East 532 612 41,000 -480 Level Cleveland Center
04:54PM 42.0114 -78.4181 109° East 533 613 40,100 -1,440 Descending Cleveland Center
04:55PM 41.9533 -78.1950 109° East 531 611 38,100 -1,800 Descending Cleveland Center
04:56PM 41.9078 -78.0167 109° East 529 609 36,400 -1,740 Descending Cleveland Center
04:57PM 41.8658 -77.8619 110° East 549 632 35,000 -1,800 Descending New York Center
04:58PM 41.8164 -77.6758 110° East 543 625 33,300 -1,020 Descending New York Center
04:59PM 41.7669 -77.4844 109° East 543 625 33,000 -240 Descending New York Center
05:00PM 41.7172 -77.2931 109° East 543 625 32,900 -1,020 Descending New York Center
05:01PM 41.6647 -77.1075 111° Southeast 543 625 31,000 -1,920 Descending New York Center
05:02PM 41.6164 -76.9197 109° East 538 619 29,100 -1,980 Descending New York Center
05:03PM 41.5653 -76.7347 110° East 538 619 27,100 -2,100 Descending New York Center
05:04PM 41.5142 -76.5503 110° East 534 615 24,900 -1,500 Descending New York Center
05:05PM 41.4750 -76.4111 111° Southeast 517 595 24,100 -480 Descending New York Center
05:06PM 41.4233 -76.2242 110° East 503 579 24,000 -480 Descending New York Center
05:07PM 41.3728 -76.0486 111° Southeast 498 573 23,200 -1,440 Descending New York Center
05:08PM 41.3281 -75.8822 110° East 498 573 21,200 -2,040 Descending New York Center
05:09PM 41.2786 -75.7208 112° Southeast 485 558 19,200 -2,100 Descending New York Center
05:10PM 41.2292 -75.5600 112° Southeast 472 543 17,100 -2,640 Descending New York Center
05:11PM 41.1753 -75.3936 113° Southeast 449 517 14,000 -2,820 Descending New York Center
05:12PM 41.1283 -75.2583 115° Southeast 416 479 11,500 -2,400 Descending New York Center
05:13PM 41.0911 -75.1428 113° Southeast 368 423 9,300 -2,100 Descending New York Center
05:14PM 41.0589 -75.0528 115° Southeast 312 359 7,400 -1,680 Descending New York Center
05:15PM 41.0211 -74.9458 115° Southeast 290 334 6,000 -1,200 Descending New York Center
05:16PM 41.0019 -74.8431 104° East 290 334 5,100 -960 Descending New York Center
05:17PM 40.9842 -74.7456 104° East 280 322 4,100 -720 Descending New York Center
05:18PM 40.9642 -74.6647 108° East 274 315 3,700 -600 Descending New York Center
05:19PM 40.9364 -74.5589 109° East 274 315 3,000 -360 Descending New York Center
05:20PM 40.9158 -74.4781 109° East 269 310 3,000 -420 Level New York Center
05:21PM 40.8808 -74.3967 120° Southeast 245 282 2,200 -900 Descending New York Center
05:22PM 40.8464 -74.3728 152° Southeast 151 174 1,300 -540 Descending New York Center
05:23PM 40.8033 -74.3486 157° South 151 174 1,200 2,340 Descending New York Center
05:24PM 40.7622 -74.3272 158° South 151 174 6,000 2,400 Climbing New York Center
05:25PM 40.7214 -74.3033 156° South 151 174 6,000  Level New York Center
05:26PM 40.6803 -74.2819 158° South 151 174 6,000  Level New York Center
05:27PM 40.6722 -74.2761 151° Southeast 151 174 6,000  Level New York Center
05:28PM 40.6722 -74.2761 339° North 151 174 6,000  Level New York Center